ADDS TAF Data INFO
IDs: Format: Raw Decoded Include METARs

Data at: 0746 UTC 23 Apr 2018

KTEB 230651Z 35003KT 10SM CLR 07/M02 A3040 RMK AO2 SLP294 T00721017

KTEB 230540Z 2306/2412 VRB02KT P6SM SKC
  FM231500 12005KT P6SM SKC
  FM231700 16007KT P6SM SKC
  FM240300 18004KT P6SM FEW250


KEWR 230651Z 23003KT 10SM CLR 09/M02 A3040 RMK AO2 SLP294 T00891022

KEWR 230540Z 2306/2412 VRB04KT P6SM SKC
  FM231200 06005KT P6SM SKC
  FM231600 14008KT P6SM SKC
  FM240300 18004KT P6SM FEW250


KMMU 230735Z AUTO 00000KT 10SM CLR 03/00 A3042 RMK AO2

No TAF found for KMMU

KABE 230651Z 35004KT 10SM CLR 05/M01 A3040 RMK AO2 SLP296 T00501011

KABE 230520Z 2306/2406 VRB03KT P6SM SKC
  FM231700 17007KT P6SM SKC
  FM240200 VRB04KT P6SM SKC


KSWF 230745Z 00000KT 10SM SKC 03/M01 A3043

KSWF 230540Z 2306/2412 VRB02KT P6SM SKC
  FM231600 14005KT P6SM SKC
  FM231900 20007KT P6SM SKC
  FM240100 VRB03KT P6SM FEW250 AMD NOT SKED